sensor_id;sensor_type;location;lat;lon;timestamp;pressure;altitude;pressure_sealevel;temperature;humidity
12471;BME280;36499;46.484;13.832;2023-01-20T00:01:11;92077.31;;;0.88;79.71
12471;BME280;36499;46.484;13.832;2023-01-20T00:03:39;92088.38;;;0.89;80.13
12471;BME280;36499;46.484;13.832;2023-01-20T00:06:07;92084.59;;;0.85;79.31
12471;BME280;36499;46.484;13.832;2023-01-20T00:08:35;92084.94;;;0.82;79.66
12471;BME280;36499;46.484;13.832;2023-01-20T00:11:04;92091.69;;;0.83;80.08
12471;BME280;36499;46.484;13.832;2023-01-20T00:13:34;92080.88;;;0.87;79.93
12471;BME280;36499;46.484;13.832;2023-01-20T00:16:05;92089.00;;;0.91;79.85
12471;BME280;36499;46.484;13.832;2023-01-20T00:18:35;92084.91;;;0.96;80.04
12471;BME280;36499;46.484;13.832;2023-01-20T00:21:07;92088.28;;;0.97;79.77
12471;BME280;36499;46.484;13.832;2023-01-20T00:23:36;92093.47;;;1.04;79.02
12471;BME280;36499;46.484;13.832;2023-01-20T00:26:05;92091.66;;;0.98;78.75
12471;BME280;36499;46.484;13.832;2023-01-20T00:28:35;92099.88;;;0.93;79.08
12471;BME280;36499;46.484;13.832;2023-01-20T00:31:11;92111.91;;;0.92;79.33
12471;BME280;36499;46.484;13.832;2023-01-20T00:33:39;92102.97;;;0.88;79.35
12471;BME280;36499;46.484;13.832;2023-01-20T00:36:08;92105.38;;;0.90;79.48
12471;BME280;36499;46.484;13.832;2023-01-20T00:38:36;92104.41;;;0.91;79.56
12471;BME280;36499;46.484;13.832;2023-01-20T00:41:03;92106.97;;;0.91;79.38
12471;BME280;36499;46.484;13.832;2023-01-20T00:43:31;92107.03;;;0.98;79.82
12471;BME280;36499;46.484;13.832;2023-01-20T00:45:59;92115.53;;;0.98;79.39
12471;BME280;36499;46.484;13.832;2023-01-20T00:48:26;92125.16;;;0.96;79.43
12471;BME280;36499;46.484;13.832;2023-01-20T00:50:54;92124.03;;;0.99;79.43
12471;BME280;36499;46.484;13.832;2023-01-20T00:53:21;92118.09;;;0.98;79.06
12471;BME280;36499;46.484;13.832;2023-01-20T00:55:48;92123.22;;;0.98;79.49
12471;BME280;36499;46.484;13.832;2023-01-20T00:58:16;92122.78;;;0.94;79.69
12471;BME280;36499;46.484;13.832;2023-01-20T01:00:46;92124.72;;;0.92;79.50
12471;BME280;36499;46.484;13.832;2023-01-20T01:03:15;92126.59;;;0.99;79.78
12471;BME280;36499;46.484;13.832;2023-01-20T01:05:43;92129.59;;;1.02;79.86
12471;BME280;36499;46.484;13.832;2023-01-20T01:08:10;92126.03;;;1.03;79.53
12471;BME280;36499;46.484;13.832;2023-01-20T01:10:38;92124.91;;;1.06;79.62
12471;BME280;36499;46.484;13.832;2023-01-20T01:13:06;92124.09;;;1.05;79.26
12471;BME280;36499;46.484;13.832;2023-01-20T01:15:34;92135.97;;;1.06;79.59
12471;BME280;36499;46.484;13.832;2023-01-20T01:18:01;92130.84;;;1.06;79.60
12471;BME280;36499;46.484;13.832;2023-01-20T01:20:30;92134.38;;;1.05;79.28
12471;BME280;36499;46.484;13.832;2023-01-20T01:22:57;92144.25;;;1.08;79.77
12471;BME280;36499;46.484;13.832;2023-01-20T01:25:24;92148.53;;;1.01;79.69
12471;BME280;36499;46.484;13.832;2023-01-20T01:27:51;92146.75;;;1.02;79.26
12471;BME280;36499;46.484;13.832;2023-01-20T01:30:18;92139.88;;;1.02;79.39
12471;BME280;36499;46.484;13.832;2023-01-20T01:32:46;92138.25;;;1.01;79.36
12471;BME280;36499;46.484;13.832;2023-01-20T01:35:14;92136.13;;;1.05;80.21
12471;BME280;36499;46.484;13.832;2023-01-20T01:37:42;92140.53;;;1.11;80.01
12471;BME280;36499;46.484;13.832;2023-01-20T01:40:10;92127.69;;;1.11;79.59
12471;BME280;36499;46.484;13.832;2023-01-20T01:42:38;92113.91;;;1.12;79.49
12471;BME280;36499;46.484;13.832;2023-01-20T01:45:28;92116.22;;;1.07;79.33
12471;BME280;36499;46.484;13.832;2023-01-20T01:48:11;92115.06;;;1.09;80.09
12471;BME280;36499;46.484;13.832;2023-01-20T01:50:47;92108.97;;;1.10;79.73
12471;BME280;36499;46.484;13.832;2023-01-20T01:53:26;92116.84;;;1.09;80.32
12471;BME280;36499;46.484;13.832;2023-01-20T01:56:00;92121.00;;;1.10;80.06
12471;BME280;36499;46.484;13.832;2023-01-20T01:58:32;92112.13;;;1.12;80.04
12471;BME280;36499;46.484;13.832;2023-01-20T02:01:04;92115.66;;;1.11;79.80
12471;BME280;36499;46.484;13.832;2023-01-20T02:03:39;92115.50;;;1.13;79.75
12471;BME280;36499;46.484;13.832;2023-01-20T02:06:10;92121.06;;;1.16;79.95
12471;BME280;36499;46.484;13.832;2023-01-20T02:08:43;92125.94;;;1.11;79.61
12471;BME280;36499;46.484;13.832;2023-01-20T02:11:10;92117.09;;;1.14;79.87
12471;BME280;36499;46.484;13.832;2023-01-20T02:13:37;92112.13;;;1.12;79.25
12471;BME280;36499;46.484;13.832;2023-01-20T02:16:18;92116.09;;;1.15;79.96
12471;BME280;36499;46.484;13.832;2023-01-20T02:19:05;92112.06;;;1.06;80.07
12471;BME280;36499;46.484;13.832;2023-01-20T02:22:04;92114.81;;;1.04;80.09
12471;BME280;36499;46.484;13.832;2023-01-20T02:25:16;92122.00;;;0.94;80.21
12471;BME280;36499;46.484;13.832;2023-01-20T02:28:57;92115.88;;;1.10;80.07
12471;BME280;36499;46.484;13.832;2023-01-20T02:32:11;92112.31;;;1.11;79.90
12471;BME280;36499;46.484;13.832;2023-01-20T02:34:51;92109.41;;;1.14;80.14
12471;BME280;36499;46.484;13.832;2023-01-20T02:37:31;92111.16;;;1.13;80.09
12471;BME280;36499;46.484;13.832;2023-01-20T02:40:16;92113.09;;;1.11;79.95
12471;BME280;36499;46.484;13.832;2023-01-20T02:42:56;92120.28;;;1.16;80.03
12471;BME280;36499;46.484;13.832;2023-01-20T02:45:32;92116.31;;;1.13;80.03
12471;BME280;36499;46.484;13.832;2023-01-20T02:48:14;92110.44;;;1.19;79.62
12471;BME280;36499;46.484;13.832;2023-01-20T02:50:52;92118.13;;;1.19;79.54
12471;BME280;36499;46.484;13.832;2023-01-20T02:53:24;92110.06;;;1.22;79.80
12471;BME280;36499;46.484;13.832;2023-01-20T02:55:56;92109.47;;;1.20;79.67
12471;BME280;36499;46.484;13.832;2023-01-20T02:58:32;92117.69;;;1.16;79.24
12471;BME280;36499;46.484;13.832;2023-01-20T03:01:09;92113.19;;;1.18;79.27
12471;BME280;36499;46.484;13.832;2023-01-20T03:03:45;92115.13;;;1.16;79.11
12471;BME280;36499;46.484;13.832;2023-01-20T03:06:18;92116.38;;;1.20;78.56
12471;BME280;36499;46.484;13.832;2023-01-20T03:08:49;92113.97;;;1.18;79.09
12471;BME280;36499;46.484;13.832;2023-01-20T03:11:18;92120.69;;;1.19;79.00
12471;BME280;36499;46.484;13.832;2023-01-20T03:13:51;92116.75;;;1.17;78.74
12471;BME280;36499;46.484;13.832;2023-01-20T03:16:25;92125.41;;;1.16;79.14
12471;BME280;36499;46.484;13.832;2023-01-20T03:19:02;92121.44;;;1.13;79.42
12471;BME280;36499;46.484;13.832;2023-01-20T03:21:32;92124.97;;;1.12;79.33
12471;BME280;36499;46.484;13.832;2023-01-20T03:24:03;92125.56;;;1.14;78.83
12471;BME280;36499;46.484;13.832;2023-01-20T03:26:34;92127.53;;;1.12;78.41
12471;BME280;36499;46.484;13.832;2023-01-20T03:29:06;92128.69;;;1.10;78.84
12471;BME280;36499;46.484;13.832;2023-01-20T03:31:38;92130.63;;;1.08;78.61
12471;BME280;36499;46.484;13.832;2023-01-20T03:34:17;92132.22;;;1.09;79.03
12471;BME280;36499;46.484;13.832;2023-01-20T03:36:49;92130.47;;;1.09;79.10
12471;BME280;36499;46.484;13.832;2023-01-20T03:39:19;92131.88;;;1.12;78.51
12471;BME280;36499;46.484;13.832;2023-01-20T03:42:03;92133.19;;;1.08;79.16
12471;BME280;36499;46.484;13.832;2023-01-20T03:44:56;92140.91;;;1.08;78.98
12471;BME280;36499;46.484;13.832;2023-01-20T03:47:50;92136.72;;;1.07;79.39
12471;BME280;36499;46.484;13.832;2023-01-20T03:50:34;92137.53;;;1.07;79.85
12471;BME280;36499;46.484;13.832;2023-01-20T03:53:15;92143.66;;;1.06;79.34
12471;BME280;36499;46.484;13.832;2023-01-20T03:55:50;92142.22;;;1.04;79.00
12471;BME280;36499;46.484;13.832;2023-01-20T03:58:24;92138.25;;;1.01;79.07
12471;BME280;36499;46.484;13.832;2023-01-20T04:00:55;92142.00;;;0.99;79.34
12471;BME280;36499;46.484;13.832;2023-01-20T04:03:28;92137.03;;;0.97;79.27
12471;BME280;36499;46.484;13.832;2023-01-20T04:05:59;92135.78;;;0.93;79.40
12471;BME280;36499;46.484;13.832;2023-01-20T04:08:33;92138.53;;;0.91;79.75
12471;BME280;36499;46.484;13.832;2023-01-20T04:11:05;92136.94;;;0.90;79.66
12471;BME280;36499;46.484;13.832;2023-01-20T04:13:34;92136.59;;;0.93;79.81
12471;BME280;36499;46.484;13.832;2023-01-20T04:16:02;92139.16;;;0.93;80.01
12471;BME280;36499;46.484;13.832;2023-01-20T04:18:30;92144.28;;;0.93;79.82
12471;BME280;36499;46.484;13.832;2023-01-20T04:21:01;92139.44;;;0.99;79.99
12471;BME280;36499;46.484;13.832;2023-01-20T04:23:35;92138.00;;;0.96;79.86
12471;BME280;36499;46.484;13.832;2023-01-20T04:26:05;92136.50;;;1.02;79.81
12471;BME280;36499;46.484;13.832;2023-01-20T04:28:32;92138.97;;;1.10;79.13
12471;BME280;36499;46.484;13.832;2023-01-20T04:30:59;92135.22;;;1.12;79.51
12471;BME280;36499;46.484;13.832;2023-01-20T04:33:26;92139.94;;;1.09;79.84
12471;BME280;36499;46.484;13.832;2023-01-20T04:35:53;92137.03;;;0.97;78.84
12471;BME280;36499;46.484;13.832;2023-01-20T04:38:21;92143.91;;;0.96;78.69
12471;BME280;36499;46.484;13.832;2023-01-20T04:40:48;92145.88;;;0.94;78.88
12471;BME280;36499;46.484;13.832;2023-01-20T04:43:15;92142.25;;;0.89;78.48
12471;BME280;36499;46.484;13.832;2023-01-20T04:45:43;92147.91;;;0.84;78.22
12471;BME280;36499;46.484;13.832;2023-01-20T04:48:10;92145.91;;;0.80;78.44
12471;BME280;36499;46.484;13.832;2023-01-20T04:50:38;92145.78;;;0.73;78.68
12471;BME280;36499;46.484;13.832;2023-01-20T04:53:10;92148.34;;;0.73;78.58
12471;BME280;36499;46.484;13.832;2023-01-20T04:55:40;92149.59;;;0.77;78.35
12471;BME280;36499;46.484;13.832;2023-01-20T04:58:08;92144.09;;;0.80;78.46
12471;BME280;36499;46.484;13.832;2023-01-20T05:00:35;92151.19;;;0.64;78.28
12471;BME280;36499;46.484;13.832;2023-01-20T05:03:02;92154.66;;;0.71;78.04
12471;BME280;36499;46.484;13.832;2023-01-20T05:05:32;92162.59;;;0.61;78.29
12471;BME280;36499;46.484;13.832;2023-01-20T05:07:59;92158.91;;;0.64;78.37
12471;BME280;36499;46.484;13.832;2023-01-20T05:10:30;92163.94;;;0.72;78.13
12471;BME280;36499;46.484;13.832;2023-01-20T05:12:59;92164.09;;;0.70;77.97
12471;BME280;36499;46.484;13.832;2023-01-20T05:15:27;92170.63;;;0.73;77.76
12471;BME280;36499;46.484;13.832;2023-01-20T05:17:54;92168.88;;;0.73;77.94
12471;BME280;36499;46.484;13.832;2023-01-20T05:20:21;92165.63;;;0.79;78.13
12471;BME280;36499;46.484;13.832;2023-01-20T05:22:48;92181.63;;;0.81;77.44
12471;BME280;36499;46.484;13.832;2023-01-20T05:25:15;92176.22;;;0.76;78.26
12471;BME280;36499;46.484;13.832;2023-01-20T05:27:42;92182.41;;;0.67;77.82
12471;BME280;36499;46.484;13.832;2023-01-20T05:30:12;92182.56;;;0.66;78.03
12471;BME280;36499;46.484;13.832;2023-01-20T05:32:39;92185.34;;;0.64;77.79
12471;BME280;36499;46.484;13.832;2023-01-20T05:35:08;92192.91;;;0.58;78.16
12471;BME280;36499;46.484;13.832;2023-01-20T05:37:35;92189.66;;;0.64;78.11
12471;BME280;36499;46.484;13.832;2023-01-20T05:40:02;92192.91;;;0.58;77.89
12471;BME280;36499;46.484;13.832;2023-01-20T05:42:31;92185.84;;;0.60;77.98
12471;BME280;36499;46.484;13.832;2023-01-20T05:44:58;92193.34;;;0.61;78.04
12471;BME280;36499;46.484;13.832;2023-01-20T05:47:27;92190.19;;;0.59;78.25
12471;BME280;36499;46.484;13.832;2023-01-20T05:49:54;92198.22;;;0.56;78.08
12471;BME280;36499;46.484;13.832;2023-01-20T05:52:21;92192.09;;;0.57;78.30
12471;BME280;36499;46.484;13.832;2023-01-20T05:54:48;92192.09;;;0.57;78.19
12471;BME280;36499;46.484;13.832;2023-01-20T05:57:15;92195.66;;;0.56;78.68
12471;BME280;36499;46.484;13.832;2023-01-20T05:59:43;92203.00;;;0.59;78.18
12471;BME280;36499;46.484;13.832;2023-01-20T06:02:10;92194.34;;;0.60;78.40
12471;BME280;36499;46.484;13.832;2023-01-20T06:04:39;92196.56;;;0.63;78.29
12471;BME280;36499;46.484;13.832;2023-01-20T06:07:06;92193.72;;;0.58;78.50
12471;BME280;36499;46.484;13.832;2023-01-20T06:09:33;92203.06;;;0.51;78.30
12471;BME280;36499;46.484;13.832;2023-01-20T06:12:00;92206.72;;;0.57;78.29
12471;BME280;36499;46.484;13.832;2023-01-20T06:14:27;92203.97;;;0.58;78.42
12471;BME280;36499;46.484;13.832;2023-01-20T06:16:55;92210.53;;;0.61;78.24
12471;BME280;36499;46.484;13.832;2023-01-20T06:19:22;92202.84;;;0.61;78.46
12471;BME280;36499;46.484;13.832;2023-01-20T06:21:50;92201.03;;;0.61;78.81
12471;BME280;36499;46.484;13.832;2023-01-20T06:24:18;92203.81;;;0.60;78.21
12471;BME280;36499;46.484;13.832;2023-01-20T06:26:45;92208.28;;;0.58;78.82
12471;BME280;36499;46.484;13.832;2023-01-20T06:29:12;92211.50;;;0.60;78.39
12471;BME280;36499;46.484;13.832;2023-01-20T06:31:39;92213.88;;;0.61;78.37
12471;BME280;36499;46.484;13.832;2023-01-20T06:34:06;92224.75;;;0.63;78.65
12471;BME280;36499;46.484;13.832;2023-01-20T06:36:33;92217.88;;;0.64;78.18
12471;BME280;36499;46.484;13.832;2023-01-20T06:39:02;92226.00;;;0.67;78.39
12471;BME280;36499;46.484;13.832;2023-01-20T06:41:29;92215.31;;;0.64;78.58
12471;BME280;36499;46.484;13.832;2023-01-20T06:43:56;92226.81;;;0.68;78.93
12471;BME280;36499;46.484;13.832;2023-01-20T06:46:23;92226.97;;;0.66;78.94
12471;BME280;36499;46.484;13.832;2023-01-20T06:48:51;92231.50;;;0.64;78.54
12471;BME280;36499;46.484;13.832;2023-01-20T06:51:23;92231.31;;;0.66;78.81
12471;BME280;36499;46.484;13.832;2023-01-20T06:53:50;92231.94;;;0.68;78.61
12471;BME280;36499;46.484;13.832;2023-01-20T06:56:20;92236.88;;;0.69;78.96
12471;BME280;36499;46.484;13.832;2023-01-20T06:58:51;92243.59;;;0.70;78.47
12471;BME280;36499;46.484;13.832;2023-01-20T07:01:22;92245.00;;;0.73;79.07
12471;BME280;36499;46.484;13.832;2023-01-20T07:03:49;92243.47;;;1.01;82.75
12471;BME280;36499;46.484;13.832;2023-01-20T07:06:23;92246.00;;;1.30;80.96
12471;BME280;36499;46.484;13.832;2023-01-20T07:08:53;92256.63;;;1.57;79.51
12471;BME280;36499;46.484;13.832;2023-01-20T07:11:22;92254.00;;;1.71;78.09
12471;BME280;36499;46.484;13.832;2023-01-20T07:13:49;92260.38;;;1.90;77.03
12471;BME280;36499;46.484;13.832;2023-01-20T07:16:16;92267.09;;;1.91;75.50
12471;BME280;36499;46.484;13.832;2023-01-20T07:18:48;92271.22;;;2.07;75.71
12471;BME280;36499;46.484;13.832;2023-01-20T07:21:18;92275.44;;;2.14;75.02
12471;BME280;36499;46.484;13.832;2023-01-20T07:23:49;92278.69;;;2.23;74.06
12471;BME280;36499;46.484;13.832;2023-01-20T07:26:19;92279.47;;;2.02;73.54
12471;BME280;36499;46.484;13.832;2023-01-20T07:28:58;92284.63;;;1.87;73.02
12471;BME280;36499;46.484;13.832;2023-01-20T07:31:27;92288.03;;;1.73;73.43
12471;BME280;36499;46.484;13.832;2023-01-20T07:33:56;92291.66;;;1.64;73.69
12471;BME280;36499;46.484;13.832;2023-01-20T07:36:27;92296.28;;;1.54;73.50
12471;BME280;36499;46.484;13.832;2023-01-20T07:38:54;92305.41;;;1.42;74.50
12471;BME280;36499;46.484;13.832;2023-01-20T07:41:22;92308.44;;;1.31;74.14
12471;BME280;36499;46.484;13.832;2023-01-20T07:43:51;92312.31;;;1.27;74.37
12471;BME280;36499;46.484;13.832;2023-01-20T07:46:20;92317.97;;;1.22;75.52
12471;BME280;36499;46.484;13.832;2023-01-20T07:48:48;92316.13;;;1.16;75.64
12471;BME280;36499;46.484;13.832;2023-01-20T07:51:16;92322.56;;;1.12;76.04
12471;BME280;36499;46.484;13.832;2023-01-20T07:53:46;92328.41;;;1.06;75.86
12471;BME280;36499;46.484;13.832;2023-01-20T07:56:17;92329.31;;;1.13;76.22
12471;BME280;36499;46.484;13.832;2023-01-20T07:58:47;92324.44;;;1.18;76.23
12471;BME280;36499;46.484;13.832;2023-01-20T08:01:24;92336.13;;;1.21;76.08
12471;BME280;36499;46.484;13.832;2023-01-20T08:03:53;92335.34;;;1.20;76.04
12471;BME280;36499;46.484;13.832;2023-01-20T08:06:22;92346.75;;;1.18;76.15
12471;BME280;36499;46.484;13.832;2023-01-20T08:09:14;92348.31;;;1.19;76.50
12471;BME280;36499;46.484;13.832;2023-01-20T08:11:44;92345.50;;;1.14;76.11
12471;BME280;36499;46.484;13.832;2023-01-20T08:14:11;92355.41;;;1.17;76.28
12471;BME280;36499;46.484;13.832;2023-01-20T08:16:40;92353.28;;;1.20;76.51
12471;BME280;36499;46.484;13.832;2023-01-20T08:19:17;92349.06;;;1.27;76.72
12471;BME280;36499;46.484;13.832;2023-01-20T08:21:45;92355.16;;;1.26;75.24
12471;BME280;36499;46.484;13.832;2023-01-20T08:24:13;92350.47;;;1.30;75.99
12471;BME280;36499;46.484;13.832;2023-01-20T08:26:40;92351.53;;;1.35;76.00
12471;BME280;36499;46.484;13.832;2023-01-20T08:29:08;92352.44;;;1.42;75.95
12471;BME280;36499;46.484;13.832;2023-01-20T08:31:41;92350.50;;;1.44;75.71
12471;BME280;36499;46.484;13.832;2023-01-20T08:34:08;92357.03;;;1.47;75.34
12471;BME280;36499;46.484;13.832;2023-01-20T08:36:39;92356.69;;;1.50;75.47
12471;BME280;36499;46.484;13.832;2023-01-20T08:39:13;92352.34;;;1.51;75.08
12471;BME280;36499;46.484;13.832;2023-01-20T08:41:46;92357.66;;;1.49;75.81
12471;BME280;36499;46.484;13.832;2023-01-20T08:44:15;92366.59;;;1.53;75.84
12471;BME280;36499;46.484;13.832;2023-01-20T08:46:44;92363.06;;;1.54;75.13
12471;BME280;36499;46.484;13.832;2023-01-20T08:49:15;92368.56;;;1.51;74.63
12471;BME280;36499;46.484;13.832;2023-01-20T08:51:43;92363.78;;;1.48;75.25
12471;BME280;36499;46.484;13.832;2023-01-20T08:54:10;92375.47;;;1.51;75.26
12471;BME280;36499;46.484;13.832;2023-01-20T08:56:39;92375.56;;;1.57;75.03
12471;BME280;36499;46.484;13.832;2023-01-20T08:59:06;92377.00;;;1.60;75.16
12471;BME280;36499;46.484;13.832;2023-01-20T09:01:34;92377.44;;;1.63;74.69
12471;BME280;36499;46.484;13.832;2023-01-20T09:04:04;92387.34;;;1.66;74.37
12471;BME280;36499;46.484;13.832;2023-01-20T09:06:39;92384.50;;;1.61;74.23
12471;BME280;36499;46.484;13.832;2023-01-20T09:09:08;92390.59;;;1.60;74.50
12471;BME280;36499;46.484;13.832;2023-01-20T09:11:35;92383.34;;;1.64;74.74
12471;BME280;36499;46.484;13.832;2023-01-20T09:14:04;92395.56;;;1.62;74.00
12471;BME280;36499;46.484;13.832;2023-01-20T09:16:31;92387.94;;;1.68;74.19
12471;BME280;36499;46.484;13.832;2023-01-20T09:18:58;92389.56;;;1.69;74.83
12471;BME280;36499;46.484;13.832;2023-01-20T09:21:26;92388.22;;;1.73;74.28
12471;BME280;36499;46.484;13.832;2023-01-20T09:23:53;92392.03;;;1.77;74.17
12471;BME280;36499;46.484;13.832;2023-01-20T09:26:20;92391.59;;;1.59;74.09
12471;BME280;36499;46.484;13.832;2023-01-20T09:28:48;92392.56;;;1.73;73.72
12471;BME280;36499;46.484;13.832;2023-01-20T09:31:15;92391.84;;;1.79;74.34
12471;BME280;36499;46.484;13.832;2023-01-20T09:33:43;92397.53;;;1.89;74.17
12471;BME280;36499;46.484;13.832;2023-01-20T09:36:10;92391.06;;;1.93;73.80
12471;BME280;36499;46.484;13.832;2023-01-20T09:38:38;92395.84;;;1.96;72.85
12471;BME280;36499;46.484;13.832;2023-01-20T09:41:28;92386.91;;;1.92;72.45
12471;BME280;36499;46.484;13.832;2023-01-20T09:44:38;92386.97;;;1.99;72.89
12471;BME280;36499;46.484;13.832;2023-01-20T09:47:26;92385.38;;;2.12;72.54
12471;BME280;36499;46.484;13.832;2023-01-20T09:50:29;92381.63;;;2.15;72.50
12471;BME280;36499;46.484;13.832;2023-01-20T09:53:38;92383.50;;;2.06;72.00
12471;BME280;36499;46.484;13.832;2023-01-20T09:56:11;92386.28;;;1.90;71.55
12471;BME280;36499;46.484;13.832;2023-01-20T09:58:50;92384.25;;;1.85;71.56
12471;BME280;36499;46.484;13.832;2023-01-20T10:01:29;92381.03;;;1.83;72.24
12471;BME280;36499;46.484;13.832;2023-01-20T10:04:08;92384.69;;;1.89;72.33
12471;BME280;36499;46.484;13.832;2023-01-20T10:06:43;92381.31;;;1.74;73.11
12471;BME280;36499;46.484;13.832;2023-01-20T10:09:25;92377.16;;;1.87;72.82
12471;BME280;36499;46.484;13.832;2023-01-20T10:12:07;92378.03;;;1.94;72.09
12471;BME280;36499;46.484;13.832;2023-01-20T10:14:40;92376.88;;;1.97;71.82
12471;BME280;36499;46.484;13.832;2023-01-20T10:17:16;92373.41;;;2.05;72.55
12471;BME280;36499;46.484;13.832;2023-01-20T10:19:53;92371.09;;;2.10;71.98
12471;BME280;36499;46.484;13.832;2023-01-20T10:22:29;92368.19;;;2.13;71.83
12471;BME280;36499;46.484;13.832;2023-01-20T10:25:07;92367.44;;;2.19;71.60
12471;BME280;36499;46.484;13.832;2023-01-20T10:27:43;92366.84;;;2.17;72.37
12471;BME280;36499;46.484;13.832;2023-01-20T10:30:14;92357.66;;;2.29;71.85
12471;BME280;36499;46.484;13.832;2023-01-20T10:32:49;92366.25;;;2.36;71.74
12471;BME280;36499;46.484;13.832;2023-01-20T10:35:25;92364.00;;;2.48;71.82
12471;BME280;36499;46.484;13.832;2023-01-20T10:37:57;92363.97;;;2.62;70.55
12471;BME280;36499;46.484;13.832;2023-01-20T10:40:33;92364.63;;;2.71;70.28
12471;BME280;36499;46.484;13.832;2023-01-20T10:43:10;92358.94;;;2.75;70.00
12471;BME280;36499;46.484;13.832;2023-01-20T10:45:57;92353.78;;;2.75;69.49
12471;BME280;36499;46.484;13.832;2023-01-20T10:48:46;92358.81;;;2.83;69.57
12471;BME280;36499;46.484;13.832;2023-01-20T10:51:25;92355.00;;;3.01;69.50
12471;BME280;36499;46.484;13.832;2023-01-20T10:54:13;92355.47;;;3.04;69.49
12471;BME280;36499;46.484;13.832;2023-01-20T10:56:50;92356.97;;;2.99;69.03
12471;BME280;36499;46.484;13.832;2023-01-20T10:59:27;92359.25;;;2.87;68.87
12471;BME280;36499;46.484;13.832;2023-01-20T11:02:13;92358.66;;;2.85;68.45
12471;BME280;36499;46.484;13.832;2023-01-20T11:04:44;92355.66;;;2.81;68.19
12471;BME280;36499;46.484;13.832;2023-01-20T11:07:17;92359.41;;;2.85;68.33
12471;BME280;36499;46.484;13.832;2023-01-20T11:09:47;92351.69;;;2.85;67.90
12471;BME280;36499;46.484;13.832;2023-01-20T11:12:19;92359.19;;;2.80;67.31
12471;BME280;36499;46.484;13.832;2023-01-20T11:14:47;92354.53;;;2.90;67.75
12471;BME280;36499;46.484;13.832;2023-01-20T11:17:17;92354.56;;;2.97;66.71
12471;BME280;36499;46.484;13.832;2023-01-20T11:19:53;92356.97;;;2.99;66.16
12471;BME280;36499;46.484;13.832;2023-01-20T11:22:30;92357.44;;;3.09;66.80
12471;BME280;36499;46.484;13.832;2023-01-20T11:25:02;92352.31;;;3.09;66.64
12471;BME280;36499;46.484;13.832;2023-01-20T11:27:43;92359.69;;;2.90;67.88
12471;BME280;36499;46.484;13.832;2023-01-20T11:30:24;92354.56;;;2.97;67.80
12471;BME280;36499;46.484;13.832;2023-01-20T11:33:14;92363.09;;;2.98;67.74
12471;BME280;36499;46.484;13.832;2023-01-20T11:35:57;92358.06;;;2.89;68.90
12471;BME280;36499;46.484;13.832;2023-01-20T11:38:27;92362.06;;;2.92;68.06
12471;BME280;36499;46.484;13.832;2023-01-20T11:40:56;92358.72;;;2.92;68.88
12471;BME280;36499;46.484;13.832;2023-01-20T11:43:34;92359.56;;;2.99;69.35
12471;BME280;36499;46.484;13.832;2023-01-20T11:46:28;92356.84;;;3.07;69.19
12471;BME280;36499;46.484;13.832;2023-01-20T11:49:20;92362.97;;;3.06;68.79
12471;BME280;36499;46.484;13.832;2023-01-20T11:51:53;92361.88;;;3.15;67.93
12471;BME280;36499;46.484;13.832;2023-01-20T11:54:23;92359.91;;;3.17;68.33
12471;BME280;36499;46.484;13.832;2023-01-20T11:56:55;92361.13;;;3.21;68.38
12471;BME280;36499;46.484;13.832;2023-01-20T11:59:51;92365.38;;;3.07;66.98
12471;BME280;36499;46.484;13.832;2023-01-20T12:02:25;92371.66;;;3.05;67.98
12471;BME280;36499;46.484;13.832;2023-01-20T12:05:10;92361.06;;;2.93;68.06
12471;BME280;36499;46.484;13.832;2023-01-20T12:07:45;92368.03;;;2.93;67.84
12471;BME280;36499;46.484;13.832;2023-01-20T12:10:21;92365.69;;;2.98;67.83
12471;BME280;36499;46.484;13.832;2023-01-20T12:13:38;92370.22;;;2.96;68.50
12471;BME280;36499;46.484;13.832;2023-01-20T12:16:28;92368.06;;;2.99;68.36
12471;BME280;36499;46.484;13.832;2023-01-20T12:19:05;92371.44;;;3.00;67.36
12471;BME280;36499;46.484;13.832;2023-01-20T12:21:47;92379.19;;;3.00;67.39
12471;BME280;36499;46.484;13.832;2023-01-20T12:24:21;92375.25;;;3.04;68.80
12471;BME280;36499;46.484;13.832;2023-01-20T12:26:51;92377.94;;;2.96;68.21
12471;BME280;36499;46.484;13.832;2023-01-20T12:29:23;92383.09;;;2.96;68.92
12471;BME280;36499;46.484;13.832;2023-01-20T12:31:53;92385.56;;;3.04;68.77
12471;BME280;36499;46.484;13.832;2023-01-20T12:34:28;92389.94;;;3.10;68.44
12471;BME280;36499;46.484;13.832;2023-01-20T12:37:30;92382.78;;;3.05;69.17
12471;BME280;36499;46.484;13.832;2023-01-20T12:40:19;92385.91;;;3.01;68.31
12471;BME280;36499;46.484;13.832;2023-01-20T12:43:32;92391.31;;;2.84;69.52
12471;BME280;36499;46.484;13.832;2023-01-20T12:46:33;92395.81;;;2.82;69.16
12471;BME280;36499;46.484;13.832;2023-01-20T12:49:45;92398.03;;;2.85;69.67
12471;BME280;36499;46.484;13.832;2023-01-20T12:52:40;92394.84;;;2.83;69.78
12471;BME280;36499;46.484;13.832;2023-01-20T12:55:38;92398.19;;;2.77;70.38
12471;BME280;36499;46.484;13.832;2023-01-20T12:58:32;92395.72;;;2.69;70.76
12471;BME280;36499;46.484;13.832;2023-01-20T13:01:33;92396.53;;;2.55;69.82
12471;BME280;36499;46.484;13.832;2023-01-20T13:05:11;92391.59;;;2.54;70.31
12471;BME280;36499;46.484;13.832;2023-01-20T13:08:36;92393.41;;;2.60;70.66
12471;BME280;36499;46.484;13.832;2023-01-20T13:11:21;92392.88;;;2.64;70.48
12471;BME280;36499;46.484;13.832;2023-01-20T13:14:06;92401.34;;;2.58;71.05
12471;BME280;36499;46.484;13.832;2023-01-20T13:20:21;92411.53;;;2.52;70.49
12471;BME280;36499;46.484;13.832;2023-01-20T13:22:50;92416.69;;;2.52;70.98
12471;BME280;36499;46.484;13.832;2023-01-20T13:25:20;92412.16;;;2.54;70.66
12471;BME280;36499;46.484;13.832;2023-01-20T13:27:49;92414.38;;;2.57;70.44
12471;BME280;36499;46.484;13.832;2023-01-20T13:30:40;92423.84;;;2.56;70.31
12471;BME280;36499;46.484;13.832;2023-01-20T13:33:16;92421.97;;;2.65;70.23
12471;BME280;36499;46.484;13.832;2023-01-20T13:35:47;92428.91;;;2.64;70.16
12471;BME280;36499;46.484;13.832;2023-01-20T13:38:22;92426.78;;;2.53;71.16
12471;BME280;36499;46.484;13.832;2023-01-20T13:40:56;92436.69;;;2.35;71.33